Chang Sheng — V3PK — position and weather

sailwx.info

Track history (hours):
 
Tides and Currents Weather Stations Pressure Air Temp Water Temp Dewpoint Dewpoint Depression Visibility Wind Speed Wind Dir Waves Ship Positions

Chang Sheng

Last reported at 2016-Apr-29 17:13 UTC. Time now 2016-Apr-30 03:25 UTC.
Position N 34°51' E 139°42'.

Length 86 m; draft 4.7 m.

Type: Cargo ship. MMSI: 312161000.

Date/timePositionNaut miles runAvg speedWind from/ knotsBaromVisibWave heightAir tempDewpointWater temp
2016-Apr-29 17:13N 34°51' E 139°42'17 9.2
2016-Apr-29 15:24N 34°54' E 140°01'8 9.9
2016-Apr-29 14:33N 34°59' E 140°10'  
2016-Apr-25 21:24N 36°24' E 140°38'7 3.7
2016-Apr-25 19:24N 36°20' E 140°46'1 0.8
2016-Apr-25 18:33N 36°19' E 140°47'1 0.9
2016-Apr-25 17:29N 36°18' E 140°47'8 8.7
2016-Apr-25 16:32N 36°10' E 140°48'9 9.2
2016-Apr-25 15:33N 36°02' E 140°51'9 8.9
2016-Apr-25 14:33N 35°53' E 140°54'9 8.8
2016-Apr-25 13:33N 35°44' E 140°56'8 8.5
2016-Apr-25 12:33N 35°36' E 140°52'9 9.2
2016-Apr-25 11:33N 35°30' E 140°45'9 9.1
2016-Apr-25 10:33N 35°22' E 140°38'9 9.3
2016-Apr-25 09:33N 35°15' E 140°30'1510.1
2016-Apr-25 08:03N 35°03' E 140°20'5 8.4
2016-Apr-25 07:29N 35°02' E 140°14'8 8.8
2016-Apr-25 06:33N 34°57' E 140°06'8 8.5
2016-Apr-25 05:33N 34°52' E 139°57'8 8.3
2016-Apr-25 04:33N 34°52' E 139°47'8 7.9
2016-Apr-25 03:30N 34°59' E 139°43'8 8.8
2016-Apr-25 02:33N 35°07' E 139°45'10 9.8
2016-Apr-25 01:33N 35°17' E 139°44'9 8.6
2016-Apr-25 00:33N 35°26' E 139°45'10 9.9
2016-Apr-24 23:33N 35°33' E 139°54'4 3.8
2016-Apr-24 22:25N 35°36' E 139°57'0 0.0
2016-Apr-24 21:13N 35°36' E 139°57'0 0.1
2016-Apr-24 20:19N 35°36' E 139°57'0 0.0
2016-Apr-24 19:31N 35°36' E 139°57'0 0.0
2016-Apr-24 18:25N 35°36' E 139°57'0 0.0
2016-Apr-24 17:31N 35°36' E 139°57'0 0.0
2016-Apr-24 16:31N 35°36' E 139°57'0 0.0
2016-Apr-24 15:25N 35°36' E 139°57'0 0.0
2016-Apr-24 14:31N 35°36' E 139°57'0 0.0
2016-Apr-24 13:31N 35°36' E 139°57'0 0.0
2016-Apr-24 12:25N 35°36' E 139°57'0 0.0
2016-Apr-24 11:31N 35°36' E 139°57'0 0.0
2016-Apr-24 10:31N 35°36' E 139°57'0 0.0
2016-Apr-24 09:31N 35°36' E 139°57'0 0.0
2016-Apr-24 08:13N 35°36' E 139°57'0 0.1
2016-Apr-24 07:25N 35°36' E 139°57'0 0.1
2016-Apr-24 06:31N 35°36' E 139°57'0 0.0
2016-Apr-24 05:31N 35°36' E 139°57'0 0.0
2016-Apr-24 04:19N 35°36' E 139°57'0 0.0
2016-Apr-24 03:31N 35°36' E 139°57'0 0.0
2016-Apr-24 02:25N 35°36' E 139°57'0 0.1
2016-Apr-24 01:31N 35°36' E 139°57'0 0.0
2016-Apr-24 00:19N 35°36' E 139°57'0 0.0
2016-Apr-23 23:31N 35°36' E 139°57'0 0.1
2016-Apr-23 22:31N 35°36' E 139°57'0 0.0
2016-Apr-23 21:25N 35°36' E 139°57'0 0.1
2016-Apr-23 20:25N 35°36' E 139°58'0 0.0
2016-Apr-23 18:31N 35°36' E 139°58'0 0.0
2016-Apr-23 17:31N 35°36' E 139°58'0 0.0
2016-Apr-23 16:31N 35°36' E 139°58'0 0.0
2016-Apr-23 15:31N 35°36' E 139°58'0 0.0
2016-Apr-23 14:31N 35°36' E 139°58'0 0.0
2016-Apr-23 13:25N 35°36' E 139°57'0 0.0
2016-Apr-23 12:31N 35°36' E 139°57'0 0.0
2016-Apr-23 11:31N 35°36' E 139°57'0 0.0
2016-Apr-23 10:25N 35°36' E 139°57'0 0.0
2016-Apr-23 09:31N 35°36' E 139°57'0 0.0
2016-Apr-23 08:25N 35°36' E 139°57'0 0.0
2016-Apr-23 07:31N 35°36' E 139°57'0 0.0
2016-Apr-23 06:31N 35°36' E 139°57'0 0.0
2016-Apr-23 05:31N 35°36' E 139°57'0 0.0
2016-Apr-23 04:25N 35°36' E 139°57'0 0.0
2016-Apr-23 03:31N 35°36' E 139°57'0 0.1
2016-Apr-23 02:31N 35°36' E 139°57'0 0.0
2016-Apr-23 01:25N 35°36' E 139°57'0 0.0
2016-Apr-23 00:31N 35°36' E 139°57'0 0.1
2016-Apr-22 23:31N 35°36' E 139°57'0 0.1
2016-Apr-22 22:31N 35°36' E 139°57'0 0.0
2016-Apr-22 21:31N 35°36' E 139°57'0 0.0
2016-Apr-22 20:19N 35°36' E 139°57'0 0.0
2016-Apr-22 19:31N 35°36' E 139°57'0 0.0
2016-Apr-22 18:31N 35°36' E 139°57'0 0.0
2016-Apr-22 17:31N 35°36' E 139°57'0 0.0
2016-Apr-22 16:25N 35°36' E 139°57'0 0.1
2016-Apr-22 15:25N 35°36' E 139°57'0 0.0
2016-Apr-22 14:25N 35°36' E 139°57'0 0.0
2016-Apr-22 13:31N 35°36' E 139°57'0 0.0
2016-Apr-22 12:31N 35°36' E 139°57'0 0.0
2016-Apr-22 11:31N 35°36' E 139°57'0 0.0
2016-Apr-22 10:31N 35°36' E 139°57'0 0.0
2016-Apr-22 09:19N 35°36' E 139°57'0 0.0
2016-Apr-22 08:31N 35°36' E 139°57'4 3.7
2016-Apr-22 07:33N 35°40' E 139°59'1 1.0
2016-Apr-22 06:28N 35°41' E 139°58'0 0.0
2016-Apr-22 05:22N 35°41' E 139°58'0 0.0
2016-Apr-22 04:22N 35°41' E 139°58'0 0.0
2016-Apr-22 03:16N 35°41' E 139°58'0 0.0
2016-Apr-22 02:22N 35°41' E 139°58'0 0.0
2016-Apr-22 01:25N 35°41' E 139°58'0 0.0
2016-Apr-22 00:28N 35°41' E 139°58'0 0.0
2016-Apr-21 23:22N 35°41' E 139°58'0 0.0
2016-Apr-21 22:28N 35°41' E 139°58'0 0.1
2016-Apr-21 21:33N 35°41' E 139°58'5 4.7
2016-Apr-21 20:33N 35°36' E 139°58'1 0.7
2016-Apr-21 19:29N 35°35' E 139°58'0 0.0
2016-Apr-21 18:30N 35°35' E 139°58'0 0.0
2016-Apr-21 17:33N 35°35' E 139°58'2 2.5
2016-Apr-21 16:33N 35°33' E 139°56'9 8.6
2016-Apr-21 15:33N 35°27' E 139°49'8 8.5
2016-Apr-21 14:33N 35°19' E 139°44'8 8.1
2016-Apr-21 13:33N 35°11' E 139°47'9 8.5
2016-Apr-21 12:33N 35°04' E 139°42'  
Track history (hours):
 
Tides and Currents Weather Stations Pressure Air Temp Water Temp Dewpoint Dewpoint Depression Visibility Wind Speed Wind Dir Waves Ship Positions

Chang Sheng

Last reported at 2016-Apr-29 17:13 UTC. Time now 2016-Apr-30 03:25 UTC.
Position N 34°51' E 139°42'.

Length 86 m; draft 4.7 m.

Type: Cargo ship. MMSI: 312161000.

Date/timePositionNaut miles runAvg speedWind from/ knotsBaromVisibWave heightAir tempDewpointWater temp
2016-Apr-29 17:13N 34°51' E 139°42'17 9.2
2016-Apr-29 15:24N 34°54' E 140°01'8 9.9
2016-Apr-29 14:33N 34°59' E 140°10'  
2016-Apr-25 21:24N 36°24' E 140°38'7 3.7
2016-Apr-25 19:24N 36°20' E 140°46'1 0.8
2016-Apr-25 18:33N 36°19' E 140°47'1 0.9
2016-Apr-25 17:29N 36°18' E 140°47'8 8.7
2016-Apr-25 16:32N 36°10' E 140°48'9 9.2
2016-Apr-25 15:33N 36°02' E 140°51'9 8.9
2016-Apr-25 14:33N 35°53' E 140°54'9 8.8
2016-Apr-25 13:33N 35°44' E 140°56'8 8.5
2016-Apr-25 12:33N 35°36' E 140°52'9 9.2
2016-Apr-25 11:33N 35°30' E 140°45'9 9.1
2016-Apr-25 10:33N 35°22' E 140°38'9 9.3
2016-Apr-25 09:33N 35°15' E 140°30'1510.1
2016-Apr-25 08:03N 35°03' E 140°20'5 8.4
2016-Apr-25 07:29N 35°02' E 140°14'8 8.8
2016-Apr-25 06:33N 34°57' E 140°06'8 8.5
2016-Apr-25 05:33N 34°52' E 139°57'8 8.3
2016-Apr-25 04:33N 34°52' E 139°47'8 7.9
2016-Apr-25 03:30N 34°59' E 139°43'8 8.8
2016-Apr-25 02:33N 35°07' E 139°45'10 9.8
2016-Apr-25 01:33N 35°17' E 139°44'9 8.6
2016-Apr-25 00:33N 35°26' E 139°45'10 9.9
2016-Apr-24 23:33N 35°33' E 139°54'4 3.8
2016-Apr-24 22:25N 35°36' E 139°57'0 0.0
2016-Apr-24 21:13N 35°36' E 139°57'0 0.1
2016-Apr-24 20:19N 35°36' E 139°57'0 0.0
2016-Apr-24 19:31N 35°36' E 139°57'0 0.0
2016-Apr-24 18:25N 35°36' E 139°57'0 0.0
2016-Apr-24 17:31N 35°36' E 139°57'0 0.0
2016-Apr-24 16:31N 35°36' E 139°57'0 0.0
2016-Apr-24 15:25N 35°36' E 139°57'0 0.0
2016-Apr-24 14:31N 35°36' E 139°57'0 0.0
2016-Apr-24 13:31N 35°36' E 139°57'0 0.0
2016-Apr-24 12:25N 35°36' E 139°57'0 0.0
2016-Apr-24 11:31N 35°36' E 139°57'0 0.0
2016-Apr-24 10:31N 35°36' E 139°57'0 0.0
2016-Apr-24 09:31N 35°36' E 139°57'0 0.0
2016-Apr-24 08:13N 35°36' E 139°57'0 0.1
2016-Apr-24 07:25N 35°36' E 139°57'0 0.1
2016-Apr-24 06:31N 35°36' E 139°57'0 0.0
2016-Apr-24 05:31N 35°36' E 139°57'0 0.0
2016-Apr-24 04:19N 35°36' E 139°57'0 0.0
2016-Apr-24 03:31N 35°36' E 139°57'0 0.0
2016-Apr-24 02:25N 35°36' E 139°57'0 0.1
2016-Apr-24 01:31N 35°36' E 139°57'0 0.0
2016-Apr-24 00:19N 35°36' E 139°57'0 0.0
2016-Apr-23 23:31N 35°36' E 139°57'0 0.1
2016-Apr-23 22:31N 35°36' E 139°57'0 0.0
2016-Apr-23 21:25N 35°36' E 139°57'0 0.1
2016-Apr-23 20:25N 35°36' E 139°58'0 0.0
2016-Apr-23 18:31N 35°36' E 139°58'0 0.0
2016-Apr-23 17:31N 35°36' E 139°58'0 0.0
2016-Apr-23 16:31N 35°36' E 139°58'0 0.0
2016-Apr-23 15:31N 35°36' E 139°58'0 0.0
2016-Apr-23 14:31N 35°36' E 139°58'0 0.0
2016-Apr-23 13:25N 35°36' E 139°57'0 0.0
2016-Apr-23 12:31N 35°36' E 139°57'0 0.0
2016-Apr-23 11:31N 35°36' E 139°57'0 0.0
2016-Apr-23 10:25N 35°36' E 139°57'0 0.0
2016-Apr-23 09:31N 35°36' E 139°57'0 0.0
2016-Apr-23 08:25N 35°36' E 139°57'0 0.0
2016-Apr-23 07:31N 35°36' E 139°57'0 0.0
2016-Apr-23 06:31N 35°36' E 139°57'0 0.0
2016-Apr-23 05:31N 35°36' E 139°57'0 0.0
2016-Apr-23 04:25N 35°36' E 139°57'0 0.0
2016-Apr-23 03:31N 35°36' E 139°57'0 0.1
2016-Apr-23 02:31N 35°36' E 139°57'0 0.0
2016-Apr-23 01:25N 35°36' E 139°57'0 0.0
2016-Apr-23 00:31N 35°36' E 139°57'0 0.1
2016-Apr-22 23:31N 35°36' E 139°57'0 0.1
2016-Apr-22 22:31N 35°36' E 139°57'0 0.0
2016-Apr-22 21:31N 35°36' E 139°57'0 0.0
2016-Apr-22 20:19N 35°36' E 139°57'0 0.0
2016-Apr-22 19:31N 35°36' E 139°57'0 0.0
2016-Apr-22 18:31N 35°36' E 139°57'0 0.0
2016-Apr-22 17:31N 35°36' E 139°57'0 0.0
2016-Apr-22 16:25N 35°36' E 139°57'0 0.1
2016-Apr-22 15:25N 35°36' E 139°57'0 0.0
2016-Apr-22 14:25N 35°36' E 139°57'0 0.0
2016-Apr-22 13:31N 35°36' E 139°57'0 0.0
2016-Apr-22 12:31N 35°36' E 139°57'0 0.0
2016-Apr-22 11:31N 35°36' E 139°57'0 0.0
2016-Apr-22 10:31N 35°36' E 139°57'0 0.0
2016-Apr-22 09:19N 35°36' E 139°57'0 0.0
2016-Apr-22 08:31N 35°36' E 139°57'4 3.7
2016-Apr-22 07:33N 35°40' E 139°59'1 1.0
2016-Apr-22 06:28N 35°41' E 139°58'0 0.0
2016-Apr-22 05:22N 35°41' E 139°58'0 0.0
2016-Apr-22 04:22N 35°41' E 139°58'0 0.0
2016-Apr-22 03:16N 35°41' E 139°58'0 0.0
2016-Apr-22 02:22N 35°41' E 139°58'0 0.0
2016-Apr-22 01:25N 35°41' E 139°58'0 0.0
2016-Apr-22 00:28N 35°41' E 139°58'0 0.0
2016-Apr-21 23:22N 35°41' E 139°58'0 0.0
2016-Apr-21 22:28N 35°41' E 139°58'0 0.1
2016-Apr-21 21:33N 35°41' E 139°58'5 4.7
2016-Apr-21 20:33N 35°36' E 139°58'1 0.7
2016-Apr-21 19:29N 35°35' E 139°58'0 0.0
2016-Apr-21 18:30N 35°35' E 139°58'0 0.0
2016-Apr-21 17:33N 35°35' E 139°58'2 2.5
2016-Apr-21 16:33N 35°33' E 139°56'9 8.6
2016-Apr-21 15:33N 35°27' E 139°49'8 8.5
2016-Apr-21 14:33N 35°19' E 139°44'8 8.1
2016-Apr-21 13:33N 35°11' E 139°47'9 8.5
2016-Apr-21 12:33N 35°04' E 139°42'  

Dump ship's entire track history